ESGT

Trollhättan-Vänersborg Airport

Trollhättan, Sweden
METAR ESGT 211920Z 29008KT 9999 BKN046 11/09 Q1003
Observed Flight Rules
Jun-21 @ 19:20 UTC (3 hours ago) Visual Flight Rules
Wind Visibility Clouds
290° at 8 knots 10,000+ meters
  • Broken at 4,600' AGL
Temperatures Readings
Current 11°C / 52°F
Dewpoint 9°C / 48°F
Humidity 88%
Altimeter 29.62" Hg
Pressure 1003 hPa
Elevation 41
METAR ESGT 211920Z 29008KT 9999 BKN046 11/09 Q1003
Observed Flight Rules
Jun-21 @ 19:20 UTC
(3 hours ago)
VFR
Wind Visibility
290° at 8 knots 10,000+ meters
Clouds
  • Broken at 4,600' AGL
Temperature Dewpoint
11°C / 52°F 9°C / 48°F
Humidity Altimeter Pressure
88% 29.62" Hg 1003 hPa